Crane, Washington
Current Conditions -  °F | °C
As of 8:53 PM on Sunday 19 Oct 2014 (Local Time) from KCLM Reporting Station
Light Rain Light Rain  
Wind Chill: 56°   Ceiling: 700
Heat Index: 56°   Visibility: 6mi
Dew Point: 54°   Wind: 5mph
Humidity: 93%   Direction: NA
Pressure: 29.66"   Gusts: NA
Location:  48.1359°N, 123.734°W
Report Text: KCLM 200353Z AUTO VRB04KT 6SM -RA BR OVC007 13/12 A2966 RMK AO2 SLP043 P0006 T01330122 TSNO $
Loading
Personal Weather Stations






























Interactive Weather Map
Tropical Storm Tracking
New forecast layout! Learn more

10-Day Weather Forecast

Advertisements
Track Severe Weather on mobile